createdAt,value
2019-05-20T01:43:53.413Z,15.50
2019-05-20T01:52:34.920Z,15.60
2019-05-20T03:17:52.908Z,15.30
2019-05-20T03:20:35.437Z,15.30
2019-05-20T05:18:08.816Z,18.00
2019-05-20T05:20:43.179Z,18.10
2019-05-20T05:29:06.072Z,18.10
2019-05-20T05:34:27.025Z,18.10
2019-05-20T05:37:15.208Z,18.20
2019-05-20T05:42:34.464Z,18.40
2019-05-20T05:45:07.335Z,18.50
2019-05-20T05:56:26.498Z,18.70
2019-05-20T05:59:11.963Z,18.80
2019-05-20T06:04:41.387Z,18.90
2019-05-20T06:07:17.349Z,19.00
2019-05-20T06:09:47.940Z,19.10
2019-05-20T06:12:28.966Z,19.20
2019-05-20T06:24:08.906Z,19.80
2019-05-20T06:54:58.368Z,20.10
2019-05-20T07:00:35.020Z,20.20
2019-05-20T07:18:27.526Z,20.40
2019-05-20T07:36:17.259Z,20.90
2019-05-20T07:42:02.519Z,20.90
2019-05-20T07:44:31.585Z,21.10
2019-05-20T07:50:16.400Z,21.40
2019-05-20T08:31:27.530Z,22.50
2019-05-20T08:37:07.712Z,22.50
2019-05-20T08:42:16.378Z,22.70
2019-05-20T08:50:46.860Z,22.60
2019-05-20T08:53:16.659Z,22.70
2019-05-20T08:55:45.796Z,22.70
2019-05-20T09:00:55.296Z,22.80
2019-05-20T09:27:27.229Z,23.50
2019-05-20T09:32:42.822Z,23.70
2019-05-20T09:56:14.922Z,24.30
2019-05-20T10:29:19.439Z,26.10
2019-05-20T10:37:49.667Z,26.10
2019-05-20T10:43:10.637Z,25.40
2019-05-20T10:54:38.407Z,25.00
2019-05-20T10:59:54.917Z,25.00
2019-05-20T11:02:32.124Z,25.50
2019-05-20T11:05:01.323Z,25.90
2019-05-20T11:10:22.800Z,26.50
2019-05-20T11:12:54.556Z,26.70
2019-05-20T11:15:23.913Z,26.80
2019-05-20T11:17:58.019Z,26.60
2019-05-20T11:20:31.344Z,26.60
2019-05-20T11:23:01.284Z,26.60
2019-05-20T11:25:30.489Z,26.60
2019-05-20T11:27:59.549Z,26.70
2019-05-20T11:30:30.327Z,26.70
2019-05-20T11:32:59.532Z,26.70
2019-05-20T11:35:28.604Z,26.60
2019-05-20T11:37:58.479Z,26.60
2019-05-20T11:40:27.613Z,26.40
2019-05-20T11:43:00.169Z,26.10
2019-05-20T11:45:29.546Z,25.90
2019-05-20T11:48:01.700Z,25.70
2019-05-20T11:50:31.200Z,25.60
2019-05-20T11:53:00.452Z,25.70
2019-05-20T11:55:29.543Z,25.20
2019-05-20T11:58:14.674Z,25.20
2019-05-20T12:00:29.467Z,25.30
2019-05-20T12:02:58.957Z,25.30
2019-05-20T12:05:28.873Z,25.40
2019-05-20T12:07:58.422Z,25.40
2019-05-20T12:10:27.487Z,25.50
2019-05-20T12:12:56.562Z,25.50
2019-05-20T12:15:25.627Z,25.50
2019-05-20T12:17:54.684Z,25.40
2019-05-20T12:20:23.872Z,25.30
2019-05-20T12:22:52.941Z,25.30
2019-05-20T12:25:21.995Z,25.40
2019-05-20T12:27:51.728Z,25.40
2019-05-20T12:30:21.258Z,25.50
2019-05-20T12:32:50.777Z,25.60
2019-05-20T12:35:19.883Z,25.70
2019-05-20T12:37:49.016Z,25.90
2019-05-20T12:40:18.740Z,26.00
2019-05-20T12:42:48.088Z,26.30
2019-05-20T12:45:18.278Z,26.50
2019-05-20T12:47:48.040Z,26.60
2019-05-20T12:50:17.663Z,26.80
2019-05-20T12:52:46.726Z,26.70
2019-05-20T12:55:16.128Z,26.60
2019-05-20T12:57:45.189Z,26.30
2019-05-20T13:00:18.848Z,25.90
2019-05-20T13:02:48.132Z,25.60
2019-05-20T13:05:18.710Z,25.50
2019-05-20T13:07:47.817Z,25.40
2019-05-20T13:10:29.306Z,25.40
2019-05-20T13:12:48.497Z,25.40
2019-05-20T13:15:18.081Z,25.30
2019-05-20T13:17:47.284Z,25.10
2019-05-20T13:20:16.482Z,25.00
2019-05-20T13:22:45.541Z,24.90
2019-05-20T13:25:14.808Z,24.80
2019-05-20T13:27:44.030Z,25.30
2019-05-20T13:30:13.551Z,24.60
2019-05-20T13:32:42.738Z,24.50
2019-05-20T13:35:12.529Z,24.40
2019-05-20T14:37:35.888Z,23.60
2019-05-20T14:40:08.301Z,23.60
2019-05-20T14:42:37.422Z,23.50
2019-05-20T14:45:06.942Z,23.40
2019-05-20T14:59:44.157Z,23.20
2019-05-20T15:02:13.298Z,23.20
2019-05-20T15:04:42.386Z,23.20
2019-05-20T15:07:11.516Z,23.20
2019-05-20T15:24:17.774Z,22.50
2019-05-20T15:26:46.900Z,22.70
2019-05-20T15:29:27.713Z,22.70
2019-05-20T15:31:47.355Z,22.80
2019-05-20T15:34:16.441Z,22.80
2019-05-20T15:36:45.662Z,22.90
2019-05-20T15:39:15.179Z,22.80
2019-05-20T16:23:40.400Z,21.30
2019-05-20T16:26:09.471Z,21.20
2019-05-20T17:34:42.191Z,21.30
2019-05-20T17:37:11.438Z,21.40
2019-05-20T17:50:25.511Z,21.30
2019-05-20T17:58:07.380Z,21.50
2019-05-20T18:00:36.602Z,21.40
2019-05-20T18:03:05.776Z,21.30
2019-05-20T18:05:34.957Z,21.40
2019-05-20T18:08:04.167Z,21.40
2019-05-20T18:10:33.306Z,21.40
2019-05-20T18:13:02.546Z,21.50
2019-05-20T18:15:31.712Z,21.50
2019-05-20T18:26:03.773Z,21.30
2019-05-20T18:33:52.583Z,21.30
2019-05-20T18:39:11.183Z,21.20
2019-05-20T18:41:40.393Z,21.20
2019-05-20T22:55:18.223Z,19.10
